Time;durP1;ratioP1;P1;durP2;ratioP2;P2;SDS_P1;SDS_P2;PMS_P1;PMS_P2;Temp;Humidity;BMP_temperature;BMP_pressure;BME280_temperature;BME280_humidity;BME280_pressure;Samples;Min_cycle;Max_cycle;Signal;HPM_P1;HPM_P2
2021/12/10 00:02:05;;;;;;;;;0.50;0.25;;;;;8.04;70.93;99370.31;5056212;28;45475;-91
2021/12/10 00:04:34;;;;;;;;;1.00;1.00;;;;;8.03;70.33;99361.59;5057731;28;45457;-92
2021/12/10 00:07:04;;;;;;;;;2.50;2.00;;;;;7.97;70.55;99348.81;5045497;28;45522;-91
2021/12/10 00:09:39;;;;;;;;;2.25;2.00;;;;;7.94;70.92;99335.84;5043114;28;46599;-91
2021/12/10 00:12:28;;;;;;;;;2.75;2.75;;;;;7.92;70.82;99320.22;5043151;28;45374;-90
2021/12/10 00:14:55;;;;;;;;;1.50;1.25;;;;;7.97;70.90;99307.78;5050829;28;45444;-91
2021/12/10 00:17:21;;;;;;;;;1.00;1.00;;;;;8.04;71.09;99297.03;5037492;28;45666;-91
2021/12/10 00:19:50;;;;;;;;;0.00;0.00;;;;;7.99;70.71;99286.78;5047421;28;45288;-90
2021/12/10 00:22:25;;;;;;;;;1.00;1.00;;;;;8.01;70.95;99284.94;5057435;28;45692;-92
2021/12/10 00:24:52;;;;;;;;;0.25;0.25;;;;;7.99;70.81;99266.72;5040298;28;45577;-90
2021/12/10 00:27:28;;;;;;;;;1.00;1.00;;;;;8.02;70.58;99257.88;5050132;28;45507;-92
2021/12/10 00:30:04;;;;;;;;;1.00;1.00;;;;;8.01;70.95;99243.06;5051102;28;45539;-91
2021/12/10 00:32:35;;;;;;;;;0.75;0.75;;;;;8.02;70.75;99234.31;5043248;28;45157;-90
2021/12/10 00:35:10;;;;;;;;;0.25;0.25;;;;;8.02;70.63;99187.22;5044679;28;45408;-90
2021/12/10 00:37:36;;;;;;;;;1.25;0.75;;;;;8.01;70.96;99174.19;5045479;28;45490;-89
2021/12/10 00:40:06;;;;;;;;;1.00;1.00;;;;;7.97;71.22;99165.66;5052825;28;46257;-90
2021/12/10 00:42:34;;;;;;;;;1.75;1.00;;;;;7.96;70.96;99166.56;5044268;28;45524;-90
2021/12/10 00:45:02;;;;;;;;;1.75;0.75;;;;;7.93;70.95;99169.31;5060895;28;45461;-91
2021/12/10 00:47:28;;;;;;;;;0.50;0.50;;;;;7.91;71.20;99176.38;5046541;28;45289;-90
2021/12/10 00:49:54;;;;;;;;;0.00;0.00;;;;;7.90;70.70;99175.56;5051611;28;46326;-90
2021/12/10 00:52:20;;;;;;;;;0.50;0.50;;;;;7.85;71.01;99159.22;5058460;28;45531;-87
2021/12/10 00:54:47;;;;;;;;;0.00;0.00;;;;;7.88;71.31;99178.22;5058233;28;45505;-84
2021/12/10 00:57:14;;;;;;;;;0.00;0.00;;;;;7.87;70.84;99158.25;5053052;28;45520;-83
2021/12/10 00:59:41;;;;;;;;;0.50;0.50;;;;;7.81;70.95;99141.97;5068445;28;47043;-83
2021/12/10 01:02:11;;;;;;;;;0.75;0.75;;;;;7.80;71.55;99150.75;5059238;28;45188;-84
2021/12/10 01:04:39;;;;;;;;;0.00;0.00;;;;;7.75;71.11;99143.94;5043502;28;45318;-85
2021/12/10 01:07:08;;;;;;;;;1.00;1.00;;;;;7.78;71.36;99137.72;5042800;28;45489;-85
2021/12/10 01:09:38;;;;;;;;;0.00;0.00;;;;;7.83;71.50;99117.44;5052787;28;46478;-86
2021/12/10 01:12:12;;;;;;;;;0.50;0.00;;;;;7.87;71.42;99103.31;5056042;28;45684;-87
2021/12/10 01:15:19;;;;;;;;;0.00;0.00;;;;;7.84;71.05;99099.97;5051979;28;45487;-86
2021/12/10 01:23:51;;;;;;;;;0.00;0.00;;;;;7.81;70.96;99059.13;5040467;28;45693;-82
2021/12/10 01:26:36;;;;;;;;;0.00;0.00;;;;;7.78;71.78;99047.97;5044375;28;45481;-83
2021/12/10 01:29:02;;;;;;;;;0.25;0.25;;;;;7.80;71.51;99048.75;5054032;28;47003;-82
2021/12/10 01:31:28;;;;;;;;;0.00;0.00;;;;;7.79;71.10;99041.81;5047558;28;45490;-82
2021/12/10 01:33:54;;;;;;;;;0.00;0.00;;;;;7.78;71.21;99035.72;5051384;28;45508;-83
2021/12/10 01:36:22;;;;;;;;;2.00;0.00;;;;;7.75;71.54;99033.28;5056642;28;45433;-84
2021/12/10 01:38:50;;;;;;;;;0.00;0.00;;;;;7.77;71.70;99041.88;5059827;28;46764;-84
2021/12/10 01:41:18;;;;;;;;;1.00;0.00;;;;;7.78;71.30;99033.09;5048331;28;45386;-85
2021/12/10 01:43:45;;;;;;;;;1.00;0.75;;;;;7.79;71.84;99034.81;5042579;28;45780;-84
2021/12/10 01:46:18;;;;;;;;;0.75;0.00;;;;;7.78;71.50;99011.34;5062343;28;45501;-86
2021/12/10 01:48:47;;;;;;;;;0.00;0.00;;;;;7.78;71.80;99012.19;5041955;28;45591;-84
2021/12/10 01:51:16;;;;;;;;;0.00;0.00;;;;;7.76;71.54;99003.56;5061600;28;45271;-84
2021/12/10 01:53:45;;;;;;;;;0.00;0.00;;;;;7.81;71.65;99004.19;5050244;28;45820;-93
2021/12/10 01:56:15;;;;;;;;;0.00;0.00;;;;;7.81;71.76;99012.03;5059626;28;45544;-87
2021/12/10 01:58:41;;;;;;;;;0.25;0.00;;;;;7.77;71.40;98997.44;5049622;28;47464;-90
2021/12/10 02:01:26;;;;;;;;;0.75;0.00;;;;;7.83;72.03;98994.50;5076554;27;47944;-93
2021/12/10 02:03:54;;;;;;;;;0.00;0.00;;;;;7.88;71.55;98982.03;5056893;28;45508;-86
2021/12/10 02:06:22;;;;;;;;;1.00;0.25;;;;;7.89;71.75;98964.56;5049177;28;45334;-87
2021/12/10 02:08:47;;;;;;;;;1.00;0.00;;;;;7.92;71.56;98969.66;5050671;28;45331;-88
2021/12/10 02:11:14;;;;;;;;;0.00;0.00;;;;;7.85;71.65;98957.81;5060792;28;46307;-88
2021/12/10 02:13:40;;;;;;;;;0.25;0.00;;;;;7.81;71.86;98949.25;5048535;28;47057;-87
2021/12/10 02:16:06;;;;;;;;;0.00;0.00;;;;;7.81;72.07;98949.25;5039351;28;45394;-87
2021/12/10 02:18:32;;;;;;;;;0.00;0.00;;;;;7.78;71.95;98944.16;5053217;28;45609;-87
2021/12/10 02:21:00;;;;;;;;;1.00;1.00;;;;;7.80;71.79;98939.75;5059230;28;47242;-88
2021/12/10 02:23:26;;;;;;;;;0.00;0.00;;;;;7.80;72.13;98952.81;5053050;28;45562;-84
2021/12/10 02:25:52;;;;;;;;;0.00;0.00;;;;;7.80;72.17;98941.50;5056987;28;45241;-84
2021/12/10 02:28:18;;;;;;;;;0.00;0.00;;;;;7.78;72.12;98928.47;5056871;28;45464;-86
2021/12/10 02:30:44;;;;;;;;;0.00;0.00;;;;;7.80;71.80;98933.66;5060005;28;45682;-87
2021/12/10 02:33:10;;;;;;;;;1.00;0.00;;;;;7.82;72.31;98919.56;5055303;28;45529;-87
2021/12/10 02:35:36;;;;;;;;;0.00;0.00;;;;;7.84;71.73;98915.09;5050257;28;45461;-88
2021/12/10 02:38:02;;;;;;;;;0.00;0.00;;;;;7.87;71.54;98920.19;5050800;28;45475;-87
2021/12/10 02:40:30;;;;;;;;;0.00;0.00;;;;;7.92;71.81;98909.50;5060092;28;45519;-88
2021/12/10 02:43:00;;;;;;;;;0.00;0.00;;;;;7.95;72.01;98898.84;5055229;28;45623;-89
2021/12/10 02:45:28;;;;;;;;;0.00;0.00;;;;;7.97;71.92;98885.69;5054823;28;45508;-88
2021/12/10 02:47:54;;;;;;;;;0.00;0.00;;;;;7.93;71.97;98879.75;5041587;28;45500;-89
2021/12/10 02:50:24;;;;;;;;;1.00;0.00;;;;;7.92;71.82;98879.84;5050707;28;45362;-89
2021/12/10 02:52:50;;;;;;;;;0.00;0.00;;;;;7.89;72.19;98878.25;5058894;28;45204;-89
2021/12/10 02:55:17;;;;;;;;;0.00;0.00;;;;;7.91;71.85;98896.47;5042818;28;45528;-88
2021/12/10 02:57:44;;;;;;;;;0.00;0.00;;;;;7.95;72.16;98898.84;5045606;28;45462;-89
2021/12/10 03:00:14;;;;;;;;;0.00;0.00;;;;;7.95;72.04;98884.94;5059758;28;45429;-89
2021/12/10 03:02:40;;;;;;;;;0.00;0.00;;;;;7.99;71.74;98881.22;5058860;28;45781;-89
2021/12/10 03:05:08;;;;;;;;;0.00;0.00;;;;;8.07;72.22;98875.59;5055781;28;45294;-87
2021/12/10 03:07:36;;;;;;;;;0.25;0.00;;;;;8.14;72.12;98870.88;5045779;28;45418;-87
2021/12/10 03:10:06;;;;;;;;;1.75;0.00;;;;;8.19;72.08;98861.88;5075498;28;46398;-88
2021/12/10 03:12:32;;;;;;;;;0.00;0.00;;;;;8.24;71.74;98861.63;5049787;28;45678;-88
2021/12/10 03:14:58;;;;;;;;;0.75;0.75;;;;;8.26;71.68;98862.38;5055651;28;45646;-86
2021/12/10 03:17:28;;;;;;;;;0.00;0.00;;;;;8.28;71.72;98859.66;5043323;28;45288;-87
2021/12/10 03:19:54;;;;;;;;;0.00;0.00;;;;;8.26;72.03;98857.13;5049858;28;46311;-88
2021/12/10 03:22:21;;;;;;;;;0.00;0.00;;;;;8.29;71.88;98864.84;5041687;28;45631;-91
2021/12/10 03:24:46;;;;;;;;;1.00;1.00;;;;;8.31;71.82;98862.13;5056688;28;45283;-93
2021/12/10 03:27:14;;;;;;;;;0.00;0.00;;;;;8.35;72.21;98862.78;5052733;28;46205;-91
2021/12/10 03:29:43;;;;;;;;;0.00;0.00;;;;;8.37;71.97;98869.63;5047088;28;45593;-92
2021/12/10 03:32:19;;;;;;;;;0.00;0.00;;;;;8.40;71.97;98869.47;5046477;28;45430;-88
2021/12/10 03:34:45;;;;;;;;;2.00;0.25;;;;;8.38;71.86;98860.88;5045156;28;45589;-87
2021/12/10 03:37:11;;;;;;;;;2.00;1.00;;;;;8.42;71.82;98856.31;5049144;28;46082;-86
2021/12/10 03:39:37;;;;;;;;;2.00;0.00;;;;;8.46;71.99;98863.06;5054666;28;45366;-83
2021/12/10 03:42:04;;;;;;;;;0.00;0.00;;;;;8.52;71.64;98875.81;5047069;28;45437;-83
2021/12/10 03:44:30;;;;;;;;;1.00;1.00;;;;;8.57;71.69;98877.34;5052942;28;45421;-87
2021/12/10 03:46:58;;;;;;;;;0.25;0.00;;;;;8.57;72.34;98874.75;5051201;28;47449;-87
2021/12/10 03:49:23;;;;;;;;;1.00;1.00;;;;;8.59;72.18;98879.00;5045577;28;45377;-88
2021/12/10 03:51:49;;;;;;;;;0.00;0.00;;;;;8.62;72.16;98867.47;5043915;28;45469;-88
2021/12/10 03:54:17;;;;;;;;;0.00;0.00;;;;;8.68;72.65;98868.94;5073307;28;45244;-88
2021/12/10 03:56:44;;;;;;;;;1.50;0.00;;;;;8.71;73.13;98874.84;5058559;28;45460;-87
2021/12/10 03:59:13;;;;;;;;;0.25;0.25;;;;;8.74;72.67;98871.22;5058773;28;45410;-85
2021/12/10 04:01:43;;;;;;;;;1.00;1.00;;;;;8.76;73.36;98880.69;5044455;28;45584;-88
2021/12/10 04:04:15;;;;;;;;;1.00;1.00;;;;;8.78;73.42;98881.44;5045992;28;45700;-88
2021/12/10 04:06:41;;;;;;;;;1.50;1.00;;;;;8.79;74.16;98884.88;5064170;28;45496;-84
2021/12/10 04:09:07;;;;;;;;;1.50;0.00;;;;;8.82;74.09;98881.25;5059223;28;46260;-83
2021/12/10 04:11:34;;;;;;;;;2.50;1.25;;;;;8.87;74.48;98877.44;5052837;28;45420;-83
2021/12/10 04:14:00;;;;;;;;;4.50;1.75;;;;;8.92;74.51;98877.19;5051055;28;45419;-83
2021/12/10 04:16:27;;;;;;;;;3.00;1.50;;;;;9.02;73.82;98876.66;5042047;28;45240;-82
2021/12/10 04:18:56;;;;;;;;;2.75;2.75;;;;;9.06;73.98;98873.78;5060968;28;48042;-81
2021/12/10 04:21:22;;;;;;;;;4.00;2.00;;;;;9.15;73.87;98885.53;5045239;28;45909;-83
2021/12/10 04:23:49;;;;;;;;;2.75;1.50;;;;;9.16;74.24;98874.09;5057936;28;45891;-86
2021/12/10 04:26:19;;;;;;;;;3.50;2.00;;;;;9.25;74.30;98879.75;5060365;28;45272;-84
2021/12/10 04:28:45;;;;;;;;;2.25;1.00;;;;;9.30;73.33;98882.97;5062079;28;45239;-82
2021/12/10 04:31:11;;;;;;;;;1.75;1.00;;;;;9.35;74.04;98883.53;5051872;28;45247;-81
2021/12/10 04:33:37;;;;;;;;;1.00;1.00;;;;;9.38;73.66;98879.91;5059764;28;45524;-80
2021/12/10 04:36:04;;;;;;;;;3.50;2.00;;;;;9.44;73.94;98883.00;5047756;28;45403;-80
2021/12/10 04:38:33;;;;;;;;;2.50;2.50;;;;;9.51;73.67;98890.50;5040971;28;45431;-82
2021/12/10 04:41:01;;;;;;;;;2.75;2.00;;;;;9.56;73.04;98880.59;5044975;28;46383;-83
2021/12/10 04:43:28;;;;;;;;;5.75;2.50;;;;;9.61;73.31;98889.03;5044063;28;45323;-83
2021/12/10 04:45:55;;;;;;;;;2.75;2.00;;;;;9.63;73.21;98881.91;5056387;28;45412;-82
2021/12/10 04:48:20;;;;;;;;;3.00;2.00;;;;;9.66;73.15;98886.13;5049599;28;45483;-81
2021/12/10 04:50:46;;;;;;;;;4.25;2.50;;;;;9.70;72.74;98897.31;5044336;28;45430;-80
2021/12/10 04:53:12;;;;;;;;;4.75;3.25;;;;;9.73;72.28;98899.75;5047257;27;45473;-79
2021/12/10 04:55:40;;;;;;;;;5.25;2.75;;;;;9.77;72.48;98902.09;5060963;28;45464;-79
2021/12/10 04:58:06;;;;;;;;;4.00;3.25;;;;;9.79;71.93;98905.47;5049443;28;47001;-79
2021/12/10 05:00:37;;;;;;;;;2.75;2.75;;;;;9.81;72.14;98901.91;5048490;28;45359;-80
2021/12/10 05:03:05;;;;;;;;;5.75;3.00;;;;;9.84;72.15;98905.22;5059435;28;45259;-80
2021/12/10 05:05:30;;;;;;;;;7.50;2.50;;;;;9.86;71.89;98911.19;5059469;28;46599;-80
2021/12/10 05:07:56;;;;;;;;;3.50;2.00;;;;;9.87;71.34;98898.94;5041141;28;45259;-79
2021/12/10 05:10:22;;;;;;;;;3.75;2.25;;;;;9.87;71.16;98904.19;5049818;28;45599;-79
2021/12/10 05:12:48;;;;;;;;;6.00;3.50;;;;;9.90;71.09;98909.25;5040522;28;45503;-80
2021/12/10 05:15:18;;;;;;;;;2.00;2.00;;;;;9.89;71.20;98897.06;5045846;28;45393;-81
2021/12/10 05:17:44;;;;;;;;;6.25;4.00;;;;;9.90;70.92;98915.31;5042185;28;45382;-88
2021/12/10 05:20:14;;;;;;;;;4.25;3.00;;;;;9.92;70.89;98914.41;5056973;28;45223;-87
2021/12/10 05:22:42;;;;;;;;;4.00;1.75;;;;;9.95;70.40;98922.09;5050684;28;45554;-86
2021/12/10 05:25:09;;;;;;;;;4.50;2.75;;;;;9.93;69.62;98950.19;5057244;28;46018;-87
2021/12/10 05:27:36;;;;;;;;;4.50;2.00;;;;;9.88;70.08;98935.56;5052946;28;45552;-86
2021/12/10 05:30:03;;;;;;;;;5.75;3.50;;;;;9.90;70.25;98949.44;5054119;28;45325;-90
2021/12/10 05:32:29;;;;;;;;;5.25;3.00;;;;;9.88;69.34;98951.31;5049012;28;45433;-89
2021/12/10 05:34:54;;;;;;;;;2.00;2.00;;;;;9.85;69.37;98946.25;5057144;28;45386;-89
2021/12/10 05:37:20;;;;;;;;;2.00;2.00;;;;;9.85;69.38;98964.59;5044954;28;45437;-92
2021/12/10 05:39:46;;;;;;;;;3.00;1.50;;;;;9.88;69.73;98967.06;5057165;28;45498;-89
2021/12/10 05:42:11;;;;;;;;;3.50;3.00;;;;;9.88;69.24;98969.69;5056583;28;46963;-90
2021/12/10 05:44:38;;;;;;;;;4.75;3.25;;;;;9.87;69.18;98968.00;5060851;28;45540;-89
2021/12/10 05:47:05;;;;;;;;;3.00;2.00;;;;;9.89;69.33;98975.78;5054628;28;45365;-89
2021/12/10 05:49:30;;;;;;;;;4.00;2.00;;;;;9.87;69.49;98970.63;5059132;28;45216;-90
2021/12/10 05:51:56;;;;;;;;;4.50;2.25;;;;;9.93;69.84;98979.06;5063490;28;45399;-87
2021/12/10 05:54:22;;;;;;;;;4.25;3.75;;;;;9.89;69.53;98981.88;5056211;28;45282;-87
2021/12/10 05:56:47;;;;;;;;;4.00;3.00;;;;;9.94;69.85;98999.97;5053420;28;46063;-87
2021/12/10 05:59:13;;;;;;;;;3.50;3.00;;;;;9.94;69.45;99001.75;5052938;28;45233;-87
2021/12/10 06:01:38;;;;;;;;;4.00;2.00;;;;;9.89;69.45;99002.88;5053680;28;45290;-86
2021/12/10 06:04:05;;;;;;;;;5.25;4.00;;;;;9.89;69.21;99005.50;5066427;28;47294;-87
2021/12/10 06:06:32;;;;;;;;;11.50;3.75;;;;;9.90;69.46;99006.34;5050045;28;47962;-87
2021/12/10 06:08:59;;;;;;;;;3.50;3.50;;;;;9.93;69.84;99019.28;5048320;28;45240;-87
2021/12/10 06:11:26;;;;;;;;;8.25;3.75;;;;;9.95;69.46;99012.16;5054790;28;45305;-86
2021/12/10 06:13:52;;;;;;;;;5.25;4.00;;;;;9.97;69.23;99015.56;5045367;28;45537;-86
2021/12/10 06:16:18;;;;;;;;;1.00;1.00;;;;;9.99;68.70;99037.31;5057919;28;45479;-87
2021/12/10 06:18:45;;;;;;;;;2.00;2.00;;;;;9.95;69.13;99029.72;5065336;28;45298;-88
2021/12/10 06:27:31;;;;;;;;;5.75;2.00;;;;;9.92;69.37;99045.63;5036521;28;46732;-86
2021/12/10 06:29:58;;;;;;;;;4.00;4.00;;;;;9.91;69.53;99044.78;5043221;28;45232;-86
2021/12/10 06:32:24;;;;;;;;;5.00;2.00;;;;;9.86;69.38;99045.03;5049532;28;45224;-86
2021/12/10 06:34:49;;;;;;;;;2.75;2.00;;;;;9.89;69.89;99065.88;5054402;28;47063;-86
2021/12/10 06:37:15;;;;;;;;;5.00;3.75;;;;;9.84;69.40;99061.81;5039953;28;46373;-85
2021/12/10 06:39:40;;;;;;;;;8.00;4.00;;;;;9.83;69.72;99066.19;5052082;28;45726;-83
2021/12/10 06:42:06;;;;;;;;;2.75;2.00;;;;;9.82;69.85;99075.03;5053993;28;45299;-82
2021/12/10 06:44:31;;;;;;;;;5.25;3.25;;;;;9.82;69.84;99074.16;5059664;28;45477;-82
2021/12/10 06:46:57;;;;;;;;;2.00;2.00;;;;;9.77;70.08;99077.06;5058443;28;45567;-83
2021/12/10 06:49:22;;;;;;;;;3.00;3.00;;;;;9.78;70.31;99074.34;5046244;28;45280;-81
2021/12/10 06:51:48;;;;;;;;;6.00;5.00;;;;;9.79;70.35;99091.78;5058330;28;45457;-81
2021/12/10 06:54:14;;;;;;;;;4.75;3.00;;;;;9.76;70.48;99104.22;5059891;28;45396;-83
2021/12/10 06:56:40;;;;;;;;;5.25;3.00;;;;;9.74;70.66;99100.84;5049137;28;46345;-83
2021/12/10 06:59:08;;;;;;;;;3.50;2.50;;;;;9.71;70.46;99103.63;5057099;28;45867;-83
2021/12/10 07:01:40;;;;;;;;;1.75;1.75;;;;;9.62;70.33;99111.09;5046777;28;45508;-85
2021/12/10 07:04:11;;;;;;;;;2.25;1.00;;;;;9.57;70.04;99123.59;5059187;28;45289;-86
2021/12/10 07:06:39;;;;;;;;;0.25;0.25;;;;;9.53;70.09;99137.81;5059629;28;46322;-85
2021/12/10 07:09:10;;;;;;;;;0.25;0.25;;;;;9.50;69.63;99124.88;5059918;28;45577;-84
2021/12/10 07:11:35;;;;;;;;;1.00;0.50;;;;;9.43;70.04;99142.72;5047140;28;45303;-82
2021/12/10 07:14:02;;;;;;;;;2.00;1.00;;;;;9.42;69.89;99138.41;5050723;28;45457;-83
2021/12/10 07:16:29;;;;;;;;;0.75;0.00;;;;;9.39;69.74;99155.13;5045754;28;46280;-83
2021/12/10 07:18:57;;;;;;;;;1.00;0.00;;;;;9.36;69.37;99160.53;5059824;28;45323;-83
2021/12/10 07:21:22;;;;;;;;;5.00;1.00;;;;;9.35;70.03;99174.59;5048790;28;45528;-83
2021/12/10 07:23:49;;;;;;;;;3.25;2.00;;;;;9.36;69.60;99184.16;5054973;28;45548;-86
2021/12/10 07:26:16;;;;;;;;;1.00;1.00;;;;;9.34;69.61;99193.88;5048026;28;45435;-80
2021/12/10 07:28:42;;;;;;;;;2.25;2.00;;;;;9.28;69.87;99208.16;5069126;28;45864;-80
2021/12/10 07:31:09;;;;;;;;;1.25;0.75;;;;;9.32;69.53;99203.59;5055613;28;45477;-79
2021/12/10 07:33:35;;;;;;;;;2.50;1.75;;;;;9.30;69.62;99200.22;5041316;28;45623;-80
2021/12/10 07:36:01;;;;;;;;;1.50;1.50;;;;;9.26;69.87;99204.75;5048809;28;45914;-80
2021/12/10 07:38:26;;;;;;;;;2.00;1.00;;;;;9.27;70.59;99221.34;5045373;28;45398;-80
2021/12/10 07:40:52;;;;;;;;;3.00;2.00;;;;;9.27;70.32;99223.97;5054981;28;45516;-80
2021/12/10 07:43:20;;;;;;;;;3.25;1.50;;;;;9.25;71.08;99242.41;5056998;28;45491;-80
2021/12/10 07:45:47;;;;;;;;;2.00;1.00;;;;;9.20;71.49;99247.03;5059649;28;45371;-80
2021/12/10 07:48:16;;;;;;;;;2.00;2.00;;;;;9.18;72.14;99247.13;5061791;28;45793;-80
2021/12/10 07:50:52;;;;;;;;;6.50;2.50;;;;;9.17;71.64;99258.53;5062270;28;45484;-79
2021/12/10 07:53:19;;;;;;;;;3.00;2.00;;;;;9.15;71.08;99276.09;5064840;28;47177;-80
2021/12/10 07:55:46;;;;;;;;;4.75;2.00;;;;;9.10;70.73;99273.72;5055946;28;46330;-79
2021/12/10 07:58:11;;;;;;;;;2.00;2.00;;;;;9.06;70.95;99274.78;5045855;28;45599;-79
2021/12/10 08:00:40;;;;;;;;;3.25;2.00;;;;;9.07;70.39;99273.88;5051623;28;45441;-80
2021/12/10 08:03:06;;;;;;;;;3.25;2.00;;;;;9.07;70.34;99283.50;5060753;28;45452;-78
2021/12/10 08:05:32;;;;;;;;;2.00;2.00;;;;;9.05;70.61;99283.59;5059188;28;46528;-78
2021/12/10 08:07:59;;;;;;;;;2.00;2.00;;;;;9.04;70.19;99294.16;5069755;28;45617;-78
2021/12/10 08:10:25;;;;;;;;;2.00;2.00;;;;;9.06;70.17;99301.00;5058431;28;45321;-79
2021/12/10 08:12:51;;;;;;;;;0.50;0.50;;;;;9.04;69.45;99294.16;5053908;28;45544;-79
2021/12/10 08:15:17;;;;;;;;;1.00;1.00;;;;;9.00;68.85;99315.28;5061579;28;46203;-78
2021/12/10 08:17:44;;;;;;;;;3.00;1.75;;;;;8.97;68.85;99327.66;5058003;28;45428;-78
2021/12/10 08:20:13;;;;;;;;;2.50;1.00;;;;;8.93;69.24;99324.38;5059553;28;45374;-78
2021/12/10 08:22:39;;;;;;;;;1.25;1.00;;;;;8.92;68.46;99335.75;5062444;28;45388;-78
2021/12/10 08:25:06;;;;;;;;;1.75;1.75;;;;;8.89;68.03;99328.88;5076398;28;47750;-78
2021/12/10 08:27:31;;;;;;;;;2.00;0.00;;;;;8.88;67.66;99342.06;5043927;28;45644;-77
2021/12/10 08:30:03;;;;;;;;;2.50;0.00;;;;;8.86;67.75;99349.16;5051253;28;45403;-78
2021/12/10 08:32:29;;;;;;;;;3.75;1.00;;;;;8.90;67.21;99366.44;5046456;28;45274;-78
2021/12/10 08:34:55;;;;;;;;;2.25;2.00;;;;;8.88;65.83;99366.50;5045836;28;45420;-78
2021/12/10 08:37:20;;;;;;;;;3.00;2.00;;;;;8.87;65.70;99377.06;5051605;28;46401;-78
2021/12/10 08:39:46;;;;;;;;;1.75;1.00;;;;;8.87;66.12;99379.66;5049109;28;45488;-78
2021/12/10 08:42:13;;;;;;;;;3.00;1.25;;;;;8.87;65.81;99384.91;5047422;28;45592;-78
2021/12/10 08:44:38;;;;;;;;;3.25;0.75;;;;;8.83;65.14;99386.84;5055924;28;45484;-78
2021/12/10 08:47:04;;;;;;;;;5.00;1.75;;;;;8.84;64.21;99399.00;5049376;28;45405;-78
2021/12/10 08:49:29;;;;;;;;;0.00;0.00;;;;;8.79;65.23;99401.00;5059886;28;45327;-78
2021/12/10 08:51:57;;;;;;;;;1.00;1.00;;;;;8.80;65.50;99396.59;5066242;28;46033;-78
2021/12/10 08:54:27;;;;;;;;;2.50;0.00;;;;;8.78;65.81;99408.03;5059281;28;47305;-78
2021/12/10 08:56:53;;;;;;;;;2.00;1.00;;;;;8.77;65.28;99411.56;5061774;28;45395;-78
2021/12/10 08:59:21;;;;;;;;;2.75;0.25;;;;;8.76;64.89;99411.63;5057284;28;45485;-78
2021/12/10 09:01:49;;;;;;;;;1.00;1.00;;;;;8.74;65.34;99430.03;5072813;28;47362;-78
2021/12/10 09:04:15;;;;;;;;;2.50;0.25;;;;;8.74;64.28;99448.38;5059751;28;47109;-78
2021/12/10 09:06:44;;;;;;;;;1.00;0.25;;;;;8.70;65.39;99435.47;5051580;28;45397;-78
2021/12/10 09:09:12;;;;;;;;;1.00;1.00;;;;;8.73;64.92;99437.97;5060159;28;45327;-78
2021/12/10 09:11:43;;;;;;;;;2.50;0.00;;;;;8.71;64.80;99459.00;5055594;28;47115;-79
2021/12/10 09:14:08;;;;;;;;;0.25;0.25;;;;;8.68;65.31;99448.66;5058043;28;47470;-79
2021/12/10 09:16:36;;;;;;;;;1.00;1.00;;;;;8.68;65.00;99453.91;5059284;28;45418;-79
2021/12/10 09:19:06;;;;;;;;;2.00;0.00;;;;;8.67;64.92;99454.81;5070668;28;45408;-79
2021/12/10 09:21:34;;;;;;;;;1.50;0.00;;;;;8.63;64.74;99468.97;5059881;28;46686;-79
2021/12/10 09:24:04;;;;;;;;;2.00;1.00;;;;;8.65;65.06;99482.84;5054868;28;48346;-79
2021/12/10 09:26:32;;;;;;;;;0.25;0.25;;;;;8.68;65.04;99474.84;5058096;28;45279;-78
2021/12/10 09:28:58;;;;;;;;;3.50;0.75;;;;;8.69;65.78;99486.19;5059688;28;45592;-79
2021/12/10 09:31:24;;;;;;;;;1.00;1.00;;;;;8.69;65.27;99489.66;5068366;27;47252;-79
2021/12/10 09:33:56;;;;;;;;;2.00;1.00;;;;;8.74;65.52;99495.53;5056070;28;47186;-79
2021/12/10 09:36:21;;;;;;;;;1.25;1.25;;;;;8.76;65.77;99491.09;5047102;28;46249;-79
2021/12/10 09:38:47;;;;;;;;;2.25;2.25;;;;;8.80;65.87;99490.94;5061225;28;45255;-78
2021/12/10 09:41:12;;;;;;;;;4.00;1.00;;;;;8.85;65.07;99499.44;5076725;28;46252;-78
2021/12/10 09:43:39;;;;;;;;;2.25;2.00;;;;;8.89;65.35;99506.22;5053569;28;46679;-79
2021/12/10 09:46:06;;;;;;;;;5.00;2.00;;;;;8.91;64.71;99514.03;5051493;28;45406;-78
2021/12/10 09:48:33;;;;;;;;;2.25;1.75;;;;;8.93;64.88;99507.81;5069095;27;45499;-78
2021/12/10 09:51:03;;;;;;;;;2.00;1.00;;;;;8.95;65.10;99516.44;5060833;28;45333;-78
2021/12/10 09:53:32;;;;;;;;;3.00;1.50;;;;;9.01;64.73;99528.41;5058875;28;46748;-78
2021/12/10 09:56:00;;;;;;;;;4.50;2.25;;;;;9.03;64.66;99526.56;5060912;28;45657;-78
2021/12/10 09:58:25;;;;;;;;;8.25;3.00;;;;;9.02;64.55;99530.09;5058469;28;45414;-78
2021/12/10 10:00:59;;;;;;;;;3.50;1.75;;;;;9.03;63.99;99538.81;5060794;28;45361;-78
2021/12/10 10:03:30;;;;;;;;;3.75;1.75;;;;;8.99;64.45;99533.72;5050295;28;47230;-79
2021/12/10 10:05:55;;;;;;;;;4.25;2.25;;;;;8.97;63.70;99538.19;5056494;28;45433;-78
2021/12/10 10:08:25;;;;;;;;;5.25;5.00;;;;;9.04;63.64;99551.03;5061161;28;45326;-79
2021/12/10 10:10:55;;;;;;;;;5.00;2.75;;;;;9.03;63.53;99547.53;5073381;28;46196;-78
2021/12/10 10:13:24;;;;;;;;;4.75;3.25;;;;;9.05;63.34;99565.81;5040535;28;46116;-78
2021/12/10 10:15:51;;;;;;;;;2.25;1.25;;;;;9.06;63.44;99554.41;5043781;28;45452;-78
2021/12/10 10:18:20;;;;;;;;;6.75;2.00;;;;;9.10;62.91;99564.69;5052736;28;45335;-78
2021/12/10 10:20:51;;;;;;;;;5.25;3.00;;;;;9.14;62.91;99573.25;5057376;28;45615;-77
2021/12/10 10:23:16;;;;;;;;;3.50;3.00;;;;;9.18;63.24;99564.34;5057452;28;47386;-78
2021/12/10 10:25:47;;;;;;;;;4.75;2.25;;;;;9.24;62.86;99568.44;5049984;28;45283;-78
2021/12/10 10:28:14;;;;;;;;;3.50;2.25;;;;;9.32;62.87;99570.69;5058871;28;45332;-78
2021/12/10 10:30:53;;;;;;;;;4.75;2.00;;;;;9.35;62.15;99570.56;5060182;28;45484;-78
2021/12/10 10:33:19;;;;;;;;;1.50;1.00;;;;;9.41;62.18;99590.38;5064791;28;48239;-78
2021/12/10 10:35:50;;;;;;;;;4.50;2.25;;;;;9.42;61.79;99587.72;5057397;28;45725;-78
2021/12/10 10:38:16;;;;;;;;;7.00;4.00;;;;;9.48;62.30;99585.72;5063450;28;45258;-77
2021/12/10 10:40:58;;;;;;;;;2.25;1.50;;;;;9.52;62.14;99609.13;5051534;28;45504;-79
2021/12/10 10:43:26;;;;;;;;;1.50;1.00;;;;;9.51;62.01;99588.19;5041351;28;45477;-78
2021/12/10 10:45:51;;;;;;;;;4.25;3.00;;;;;9.56;62.54;99594.94;5054590;28;45256;-78
2021/12/10 10:48:18;;;;;;;;;5.75;3.75;;;;;9.59;61.62;99593.94;5053682;28;45228;-78
2021/12/10 10:51:01;;;;;;;;;3.50;1.25;;;;;9.63;59.59;99598.09;5051970;28;45338;-78
2021/12/10 10:53:33;;;;;;;;;2.25;2.25;;;;;9.67;61.23;99610.19;5047780;28;45405;-78
2021/12/10 10:56:06;;;;;;;;;4.50;2.75;;;;;9.68;61.46;99608.38;5060139;28;45211;-78
2021/12/10 10:58:40;;;;;;;;;7.25;4.00;;;;;9.67;59.80;99609.31;5064905;28;45635;-77
2021/12/10 11:01:21;;;;;;;;;3.25;1.25;;;;;9.65;59.26;99614.66;5051258;28;46178;-78
2021/12/10 11:03:59;;;;;;;;;3.50;1.50;;;;;9.64;60.04;99612.06;5056500;28;48466;-78
2021/12/10 11:06:36;;;;;;;;;2.00;2.00;;;;;9.63;59.18;99621.72;5049487;28;45780;-78
2021/12/10 11:09:14;;;;;;;;;3.25;1.25;;;;;9.64;59.35;99609.44;5058418;28;45364;-78
2021/12/10 11:11:47;;;;;;;;;5.00;3.75;;;;;9.63;57.27;99629.59;5051091;28;46112;-77
2021/12/10 11:14:20;;;;;;;;;2.75;2.25;;;;;9.65;59.22;99640.88;5045196;28;45301;-78
2021/12/10 11:16:51;;;;;;;;;5.25;2.00;;;;;9.66;58.71;99642.56;5043589;28;45842;-77
2021/12/10 11:19:24;;;;;;;;;1.00;1.00;;;;;9.68;57.36;99640.72;5041119;28;45464;-76
2021/12/10 11:21:57;;;;;;;;;1.00;1.00;;;;;9.73;58.76;99653.63;5054608;28;45454;-77
2021/12/10 11:24:31;;;;;;;;;5.50;2.00;;;;;9.76;58.92;99644.75;5050729;28;45302;-77
2021/12/10 11:27:03;;;;;;;;;4.00;1.75;;;;;9.77;58.38;99646.47;5058058;28;45820;-77
2021/12/10 11:29:37;;;;;;;;;1.50;1.25;;;;;9.83;57.99;99659.28;5059321;28;45335;-77
2021/12/10 11:32:18;;;;;;;;;2.00;2.00;;;;;9.82;58.06;99657.59;5052997;28;47404;-79
2021/12/10 11:34:56;;;;;;;;;2.00;2.00;;;;;9.81;58.35;99674.25;5048881;28;45779;-76
2021/12/10 11:37:40;;;;;;;;;2.00;1.00;;;;;9.81;58.04;99665.53;5041891;28;45219;-78
2021/12/10 11:40:23;;;;;;;;;2.50;1.25;;;;;9.80;57.66;99669.94;5058095;28;45287;-77
2021/12/10 11:42:55;;;;;;;;;2.00;2.00;;;;;9.78;57.22;99679.66;5053589;28;45609;-77
2021/12/10 11:45:50;;;;;;;;;2.25;2.25;;;;;9.77;56.72;99670.09;5059110;28;46468;-77
2021/12/10 11:48:24;;;;;;;;;1.75;1.25;;;;;9.80;57.26;99693.56;5059570;28;45431;-77
2021/12/10 11:51:10;;;;;;;;;1.75;1.75;;;;;9.82;55.61;99689.09;5046591;28;45473;-77
2021/12/10 11:53:48;;;;;;;;;4.75;2.00;;;;;9.83;55.50;99692.56;5048764;28;45315;-77
2021/12/10 11:56:21;;;;;;;;;2.00;1.50;;;;;9.84;56.04;99694.25;5056934;28;45267;-77
2021/12/10 11:59:07;;;;;;;;;1.50;1.25;;;;;9.88;56.48;99695.81;5044792;28;45845;-76
2021/12/10 12:01:43;;;;;;;;;6.00;2.00;;;;;9.93;56.02;99706.09;5053927;28;45267;-77